createdAt,value
2019-01-12T00:00:22.443Z,16.60
2019-01-12T00:01:22.449Z,16.50
2019-01-12T00:02:22.419Z,18.40
2019-01-12T00:03:22.410Z,15.60
2019-01-12T00:04:22.397Z,18.20
2019-01-12T00:05:22.386Z,15.40
2019-01-12T00:06:22.373Z,16.40
2019-01-12T00:07:22.384Z,14.30
2019-01-12T00:08:22.355Z,16.50
2019-01-12T00:09:22.348Z,22.00
2019-01-12T00:10:22.327Z,15.80
2019-01-12T00:11:22.339Z,18.60
2019-01-12T00:12:22.309Z,18.30
2019-01-12T00:13:22.302Z,19.00
2019-01-12T00:14:22.287Z,18.00
2019-01-12T00:15:22.291Z,13.90
2019-01-12T00:16:22.319Z,17.30
2019-01-12T00:17:22.255Z,19.60
2019-01-12T00:18:22.246Z,15.30
2019-01-12T00:19:22.236Z,19.50
2019-01-12T00:20:22.229Z,18.10
2019-01-12T00:21:22.215Z,17.40
2019-01-12T00:22:22.221Z,14.90
2019-01-12T00:23:22.193Z,12.80
2019-01-12T00:24:22.179Z,15.20
2019-01-12T00:25:22.171Z,17.50
2019-01-12T00:26:22.174Z,16.40
2019-01-12T00:27:22.168Z,16.80
2019-01-12T00:28:22.143Z,13.70
2019-01-12T00:29:22.121Z,16.30
2019-01-12T00:30:22.123Z,16.30
2019-01-12T00:31:22.110Z,16.00
2019-01-12T00:32:22.116Z,12.30
2019-01-12T00:33:22.085Z,12.60
2019-01-12T00:34:22.069Z,11.50
2019-01-12T00:35:22.108Z,11.60
2019-01-12T00:36:22.056Z,10.30
2019-01-12T00:37:22.056Z,10.90
2019-01-12T00:38:22.035Z,14.70
2019-01-12T00:39:22.019Z,9.20
2019-01-12T00:40:22.005Z,10.00
2019-01-12T00:41:22.001Z,10.90
2019-01-12T00:42:21.999Z,11.30
2019-01-12T00:43:21.976Z,11.00
2019-01-12T00:44:21.964Z,9.30
2019-01-12T00:45:21.959Z,9.40
2019-01-12T00:46:21.948Z,9.50
2019-01-12T00:47:21.952Z,9.90
2019-01-12T00:48:21.926Z,11.80
2019-01-12T00:49:21.922Z,9.10
2019-01-12T00:50:21.909Z,19.60
2019-01-12T00:51:21.899Z,8.30
2019-01-12T00:52:21.907Z,9.80
2019-01-12T00:53:21.871Z,11.70
2019-01-12T00:54:21.859Z,9.60
2019-01-12T00:55:21.845Z,9.50
2019-01-12T00:56:21.833Z,9.60
2019-01-12T00:57:21.846Z,8.10
2019-01-12T00:58:21.812Z,9.10
2019-01-12T00:59:21.804Z,9.40
2019-01-12T01:00:21.800Z,9.30
2019-01-12T01:01:21.785Z,8.70
2019-01-12T01:02:21.785Z,10.80
2019-01-12T01:03:21.757Z,8.90
2019-01-12T01:04:21.746Z,10.10
2019-01-12T01:05:21.736Z,9.20
2019-01-12T01:06:21.752Z,13.00
2019-01-12T01:07:21.740Z,8.10
2019-01-12T01:08:21.706Z,9.30
2019-01-12T01:09:21.711Z,9.30
2019-01-12T01:10:21.681Z,9.60
2019-01-12T01:11:21.673Z,6.50
2019-01-12T01:12:21.678Z,10.50
2019-01-12T01:13:21.655Z,7.80
2019-01-12T01:14:21.676Z,10.40
2019-01-12T01:15:21.633Z,8.10
2019-01-12T01:16:21.628Z,7.80
2019-01-12T01:17:21.629Z,7.60
2019-01-12T01:18:21.607Z,6.70
2019-01-12T01:19:21.585Z,7.90
2019-01-12T01:20:21.604Z,8.70
2019-01-12T01:21:21.566Z,9.00
2019-01-12T01:22:21.559Z,9.60
2019-01-12T01:23:21.567Z,8.10
2019-01-12T01:24:21.533Z,8.30
2019-01-12T01:25:21.521Z,8.00
2019-01-12T01:26:21.533Z,7.70
2019-01-12T01:27:21.524Z,9.90
2019-01-12T01:28:21.508Z,8.20
2019-01-12T01:29:21.478Z,6.80
2019-01-12T01:30:21.469Z,8.70
2019-01-12T01:31:21.456Z,8.00
2019-01-12T01:32:21.445Z,9.30
2019-01-12T01:33:27.952Z,10.00
2019-01-12T01:34:22.453Z,9.00
2019-01-12T01:35:21.415Z,10.80
2019-01-12T01:36:21.402Z,9.20
2019-01-12T01:37:21.389Z,7.70
2019-01-12T01:38:21.379Z,9.00
2019-01-12T01:39:21.395Z,9.20
2019-01-12T01:40:21.356Z,8.00
2019-01-12T01:41:21.349Z,8.70
2019-01-12T01:42:21.336Z,9.30
2019-01-12T01:43:21.326Z,9.50
2019-01-12T01:44:21.351Z,10.40
2019-01-12T01:45:21.304Z,8.50
2019-01-12T01:46:21.292Z,11.60
2019-01-12T01:47:21.279Z,10.10
2019-01-12T01:48:21.281Z,10.80
2019-01-12T01:49:21.281Z,9.90
2019-01-12T01:50:21.260Z,10.00
2019-01-12T01:51:21.237Z,10.60
2019-01-12T01:52:21.231Z,9.10
2019-01-12T01:53:21.217Z,11.60
2019-01-12T01:54:21.224Z,11.30
2019-01-12T01:55:21.194Z,12.40
2019-01-12T01:56:21.191Z,13.40
2019-01-12T01:57:21.174Z,13.30
2019-01-12T01:58:21.162Z,13.40
2019-01-12T01:59:21.174Z,16.00
2019-01-12T02:00:21.140Z,12.60
2019-01-12T02:01:21.130Z,13.30
2019-01-12T02:02:21.126Z,12.90
2019-01-12T02:03:21.111Z,14.70
2019-01-12T02:04:21.097Z,13.20
2019-01-12T02:05:21.103Z,16.20
2019-01-12T02:06:21.074Z,15.70
2019-01-12T02:07:21.066Z,15.90
2019-01-12T02:08:21.062Z,15.20
2019-01-12T02:09:21.044Z,13.80
2019-01-12T02:10:21.050Z,17.50
2019-01-12T02:11:21.028Z,15.20
2019-01-12T02:12:21.011Z,15.10
2019-01-12T02:13:21.000Z,16.80
2019-01-12T02:14:21.007Z,16.50
2019-01-12T02:15:20.995Z,16.90
2019-01-12T02:16:20.969Z,15.60
2019-01-12T02:17:20.961Z,17.80
2019-01-12T02:18:20.948Z,16.90
2019-01-12T02:19:20.948Z,17.20
2019-01-12T02:20:20.945Z,18.50
2019-01-12T02:21:20.931Z,21.10
2019-01-12T02:22:20.907Z,17.70
2019-01-12T02:23:20.894Z,18.70
2019-01-12T02:24:20.884Z,18.70
2019-01-12T02:25:20.888Z,17.00
2019-01-12T02:26:20.861Z,16.00
2019-01-12T02:27:20.857Z,17.20
2019-01-12T02:28:20.841Z,17.70
2019-01-12T02:29:20.828Z,18.90
2019-01-12T02:30:20.845Z,18.00
2019-01-12T02:31:20.812Z,19.30
2019-01-12T02:32:20.796Z,16.80
2019-01-12T02:33:20.797Z,18.70
2019-01-12T02:34:20.775Z,19.10
2019-01-12T02:35:20.785Z,18.40
2019-01-12T02:36:20.754Z,18.10
2019-01-12T02:37:20.740Z,19.40
2019-01-12T02:38:20.732Z,19.00
2019-01-12T02:39:20.730Z,17.10
2019-01-12T02:40:20.736Z,18.20
2019-01-12T02:41:20.700Z,17.40
2019-01-12T02:42:20.694Z,18.80
2019-01-12T02:43:20.678Z,18.50
2019-01-12T02:44:20.668Z,17.20
2019-01-12T02:45:20.691Z,18.10
2019-01-12T02:46:20.646Z,18.00
2019-01-12T02:47:20.738Z,21.20
2019-01-12T02:48:20.625Z,18.80
2019-01-12T02:49:20.612Z,19.10
2019-01-12T02:50:20.620Z,18.20
2019-01-12T02:51:20.605Z,19.50
2019-01-12T02:52:20.581Z,18.70
2019-01-12T02:53:20.578Z,24.30
2019-01-12T02:54:20.558Z,19.30
2019-01-12T02:55:20.567Z,19.50
2019-01-12T02:56:20.539Z,18.50
2019-01-12T02:57:20.536Z,20.40
2019-01-12T02:58:20.518Z,20.50
2019-01-12T02:59:20.506Z,22.50
2019-01-12T03:00:20.514Z,20.70
2019-01-12T03:01:20.489Z,20.40
2019-01-12T03:02:20.472Z,24.10
2019-01-12T03:03:20.476Z,20.70
2019-01-12T03:04:20.452Z,21.70
2019-01-12T03:05:20.461Z,22.20
2019-01-12T03:06:20.428Z,23.50
2019-01-12T03:07:20.420Z,22.40
2019-01-12T03:08:20.410Z,24.60
2019-01-12T03:09:20.418Z,22.40
2019-01-12T03:10:20.405Z,24.70
2019-01-12T03:11:20.376Z,23.70
2019-01-12T03:12:20.365Z,22.90
2019-01-12T03:13:20.355Z,23.10
2019-01-12T03:14:20.344Z,21.30
2019-01-12T03:15:20.391Z,23.80
2019-01-12T03:16:20.332Z,27.60
2019-01-12T03:17:20.314Z,23.70
2019-01-12T03:18:20.301Z,23.20
2019-01-12T03:19:20.291Z,30.60
2019-01-12T03:20:20.302Z,25.50
2019-01-12T03:21:20.275Z,23.30
2019-01-12T03:22:20.259Z,26.00
2019-01-12T03:23:20.250Z,25.20
2019-01-12T03:24:20.236Z,24.90
2019-01-12T03:25:20.246Z,23.30
2019-01-12T03:26:20.223Z,25.10
2019-01-12T03:27:20.215Z,22.10
2019-01-12T03:28:20.196Z,22.60
2019-01-12T03:29:20.189Z,23.80
2019-01-12T03:30:20.208Z,24.00
2019-01-12T03:31:20.178Z,22.60
2019-01-12T03:32:20.158Z,24.80
2019-01-12T03:33:20.165Z,24.10
2019-01-12T03:34:20.130Z,23.80
2019-01-12T03:35:20.140Z,22.40
2019-01-12T03:36:20.110Z,23.60
2019-01-12T03:37:20.097Z,23.20
2019-01-12T03:38:20.086Z,22.60
2019-01-12T03:39:20.082Z,23.00
2019-01-12T03:40:20.071Z,22.80
2019-01-12T03:41:20.081Z,21.80
2019-01-12T03:42:20.050Z,22.60
2019-01-12T03:43:20.040Z,22.30
2019-01-12T03:44:20.027Z,23.10
2019-01-12T03:45:20.015Z,21.80
2019-01-12T03:46:20.026Z,23.20
2019-01-12T03:47:19.991Z,22.20
2019-01-12T03:48:19.982Z,20.50
2019-01-12T03:49:19.974Z,23.50
2019-01-12T03:50:19.958Z,23.40
2019-01-12T03:51:19.968Z,22.60
2019-01-12T03:52:19.939Z,21.50
2019-01-12T03:53:19.927Z,24.30
2019-01-12T03:54:19.916Z,19.60
2019-01-12T03:55:25.418Z,21.60
2019-01-12T03:56:20.917Z,21.80
2019-01-12T03:57:19.885Z,20.50
2019-01-12T03:58:19.879Z,21.60
2019-01-12T03:59:19.865Z,20.30
2019-01-12T04:00:19.853Z,22.90
2019-01-12T04:01:19.858Z,21.80
2019-01-12T04:02:19.846Z,21.20
2019-01-12T04:03:19.823Z,21.80
2019-01-12T04:04:19.809Z,23.30
2019-01-12T04:05:19.811Z,24.40
2019-01-12T04:06:19.803Z,23.50
2019-01-12T04:07:19.775Z,24.40
2019-01-12T04:08:19.767Z,25.00
2019-01-12T04:09:19.754Z,25.10
2019-01-12T04:10:19.744Z,26.40
2019-01-12T04:11:19.772Z,27.90
2019-01-12T04:12:19.739Z,25.20
2019-01-12T04:13:19.711Z,25.40
2019-01-12T04:14:19.701Z,27.60
2019-01-12T04:15:19.691Z,26.10
2019-01-12T04:16:19.679Z,29.10
2019-01-12T04:17:19.689Z,26.50
2019-01-12T04:18:19.668Z,26.90
2019-01-12T04:19:19.649Z,26.70
2019-01-12T04:20:19.637Z,28.80
2019-01-12T04:21:19.634Z,26.00
2019-01-12T04:22:19.639Z,30.20
2019-01-12T04:23:19.609Z,26.20
2019-01-12T04:24:19.615Z,25.30
2019-01-12T04:25:19.582Z,28.80
2019-01-12T04:26:19.574Z,23.90
2019-01-12T04:27:19.565Z,24.10
2019-01-12T04:28:19.568Z,23.30
2019-01-12T04:29:19.543Z,25.00
2019-01-12T04:30:19.543Z,26.10
2019-01-12T04:31:19.519Z,24.40
2019-01-12T04:32:19.509Z,25.20
2019-01-12T04:33:19.521Z,27.10
2019-01-12T04:34:19.489Z,25.70
2019-01-12T04:35:19.480Z,23.30
2019-01-12T04:36:19.469Z,25.50
2019-01-12T04:37:19.458Z,24.80
2019-01-12T04:38:19.461Z,26.60
2019-01-12T04:39:19.434Z,27.60
2019-01-12T04:40:19.424Z,23.70
2019-01-12T04:41:19.412Z,23.10
2019-01-12T04:42:19.400Z,22.30
2019-01-12T04:43:19.416Z,24.40
2019-01-12T04:44:19.388Z,24.10
2019-01-12T04:45:19.369Z,23.50
2019-01-12T04:46:19.361Z,22.80
2019-01-12T04:47:19.349Z,21.90
2019-01-12T04:48:19.784Z,20.20
2019-01-12T04:49:19.329Z,22.00
2019-01-12T04:50:19.316Z,21.00
2019-01-12T04:51:19.307Z,22.60
2019-01-12T04:52:19.295Z,21.10
2019-01-12T04:53:19.327Z,20.20
2019-01-12T04:54:19.273Z,24.00
2019-01-12T04:55:19.265Z,20.50
2019-01-12T04:56:19.259Z,21.10
2019-01-12T04:57:19.240Z,21.00
2019-01-12T04:58:19.232Z,21.90
2019-01-12T04:59:19.236Z,22.60
2019-01-12T05:00:19.206Z,19.70
2019-01-12T05:01:19.197Z,20.40
2019-01-12T05:02:19.187Z,19.50
2019-01-12T05:03:19.183Z,18.40
2019-01-12T05:04:19.196Z,20.30
2019-01-12T05:05:19.159Z,19.00
2019-01-12T05:06:19.145Z,17.90
2019-01-12T05:07:19.133Z,21.30
2019-01-12T05:08:19.124Z,20.40
2019-01-12T05:09:19.114Z,19.30
2019-01-12T05:10:19.131Z,20.50
2019-01-12T05:11:19.098Z,21.40
2019-01-12T05:12:19.078Z,17.90
2019-01-12T05:13:19.069Z,21.10
2019-01-12T05:14:19.062Z,17.70
2019-01-12T05:15:19.066Z,20.20
2019-01-12T05:16:19.038Z,17.80
2019-01-12T05:17:19.025Z,19.30
2019-01-12T05:18:19.018Z,17.80
2019-01-12T05:19:19.004Z,19.40
2019-01-12T05:20:19.015Z,20.90
2019-01-12T05:21:18.982Z,18.40
2019-01-12T05:22:18.971Z,18.50
2019-01-12T05:23:18.967Z,20.40
2019-01-12T05:24:18.949Z,16.40
2019-01-12T05:25:18.938Z,18.40
2019-01-12T05:26:18.944Z,17.00
2019-01-12T05:27:18.917Z,16.70
2019-01-12T05:28:18.906Z,19.40
2019-01-12T05:29:18.898Z,18.90
2019-01-12T05:30:18.893Z,20.30
2019-01-12T05:31:18.896Z,19.30
2019-01-12T05:32:18.861Z,18.20
2019-01-12T05:33:18.851Z,18.90
2019-01-12T05:34:18.844Z,20.40
2019-01-12T05:35:18.829Z,18.50
2019-01-12T05:36:18.838Z,16.90
2019-01-12T05:37:18.813Z,18.30
2019-01-12T05:38:18.816Z,15.90
2019-01-12T05:39:18.786Z,21.10
2019-01-12T05:40:18.782Z,17.60
2019-01-12T05:41:18.784Z,17.70
2019-01-12T05:42:18.756Z,19.10
2019-01-12T05:43:18.745Z,18.00
2019-01-12T05:44:18.737Z,19.60
2019-01-12T05:45:18.726Z,19.20
2019-01-12T05:46:18.737Z,19.40
2019-01-12T05:47:18.701Z,16.60
2019-01-12T05:48:18.691Z,19.10
2019-01-12T05:49:18.721Z,16.20
2019-01-12T05:50:18.678Z,19.40
2019-01-12T05:51:18.660Z,18.10
2019-01-12T05:52:18.654Z,18.00
2019-01-12T05:53:18.639Z,18.90
2019-01-12T05:54:18.630Z,18.40
2019-01-12T05:55:18.636Z,17.60
2019-01-12T05:56:18.606Z,17.40
2019-01-12T05:57:18.596Z,15.80
2019-01-12T05:58:18.590Z,19.30
2019-01-12T05:59:18.600Z,15.50
2019-01-12T06:00:18.606Z,14.70
2019-01-12T06:01:18.557Z,15.80
2019-01-12T06:02:18.541Z,14.70
2019-01-12T06:03:18.529Z,17.30
2019-01-12T06:04:18.533Z,17.20
2019-01-12T06:05:18.510Z,15.10
2019-01-12T06:06:18.521Z,14.10
2019-01-12T06:07:18.490Z,14.10
2019-01-12T06:08:18.476Z,18.30
2019-01-12T06:09:18.466Z,14.70
2019-01-12T06:10:18.467Z,14.00
2019-01-12T06:11:18.463Z,14.20
2019-01-12T06:12:18.435Z,15.80
2019-01-12T06:13:18.424Z,15.60
2019-01-12T06:14:18.412Z,14.10
2019-01-12T06:15:18.401Z,13.80
2019-01-12T06:16:18.414Z,14.70
2019-01-12T06:17:18.382Z,13.30
2019-01-12T06:18:18.371Z,14.60
2019-01-12T06:19:18.402Z,15.50
2019-01-12T06:20:18.348Z,12.50
2019-01-12T06:21:18.355Z,18.50
2019-01-12T06:22:18.349Z,12.40
2019-01-12T06:23:18.318Z,15.20
2019-01-12T06:24:18.305Z,13.00
2019-01-12T06:25:18.293Z,13.70
2019-01-12T06:26:18.303Z,12.90
2019-01-12T06:27:18.271Z,14.60
2019-01-12T06:28:18.265Z,13.70
2019-01-12T06:29:18.259Z,11.60
2019-01-12T06:30:18.245Z,11.90
2019-01-12T06:31:18.228Z,12.50
2019-01-12T06:32:18.240Z,10.90
2019-01-12T06:33:18.212Z,10.10
2019-01-12T06:34:18.210Z,11.10
2019-01-12T06:35:18.195Z,11.20
2019-01-12T06:36:18.176Z,10.60
2019-01-12T06:37:18.184Z,10.00
2019-01-12T06:38:18.156Z,10.40
2019-01-12T06:39:18.146Z,10.50
2019-01-12T06:40:18.135Z,10.20
2019-01-12T06:41:18.126Z,10.40
2019-01-12T06:42:18.130Z,9.90
2019-01-12T06:43:18.102Z,9.70
2019-01-12T06:44:18.092Z,9.70
2019-01-12T06:45:18.079Z,10.90
2019-01-12T06:46:18.071Z,10.30
2019-01-12T06:47:18.077Z,9.70
2019-01-12T06:48:18.052Z,10.50
2019-01-12T06:49:18.039Z,6.90
2019-01-12T06:50:18.033Z,9.60
2019-01-12T06:51:18.018Z,9.50
2019-01-12T06:52:18.032Z,12.60
2019-01-12T06:53:18.015Z,11.20
2019-01-12T06:54:17.992Z,8.60
2019-01-12T06:55:17.974Z,9.60
2019-01-12T06:56:17.963Z,10.10
2019-01-12T06:57:17.951Z,10.10
2019-01-12T06:58:17.963Z,10.50
2019-01-12T06:59:17.937Z,12.50
2019-01-12T07:00:17.927Z,9.20
2019-01-12T07:01:17.914Z,9.60
2019-01-12T07:02:17.901Z,10.30
2019-01-12T07:03:17.917Z,11.80
2019-01-12T07:04:17.877Z,12.10
2019-01-12T07:05:17.874Z,11.00
2019-01-12T07:06:17.910Z,11.50
2019-01-12T07:07:17.844Z,11.00
2019-01-12T07:08:17.879Z,11.70
2019-01-12T07:09:17.849Z,10.80
2019-01-12T07:10:17.817Z,12.40
2019-01-12T07:11:17.805Z,12.00
2019-01-12T07:12:17.794Z,8.90
2019-01-12T07:13:17.808Z,10.40
2019-01-12T07:14:17.809Z,10.00
2019-01-12T07:15:17.773Z,12.80
2019-01-12T07:16:17.750Z,11.60
2019-01-12T07:17:17.755Z,11.60
2019-01-12T07:18:17.776Z,11.90
2019-01-12T07:19:17.734Z,10.90
2019-01-12T07:20:17.706Z,10.60
2019-01-12T07:21:17.754Z,12.90
2019-01-12T07:22:17.684Z,12.90
2019-01-12T07:23:17.677Z,12.70
2019-01-12T07:24:17.684Z,14.40
2019-01-12T07:25:17.657Z,10.90
2019-01-12T07:26:17.838Z,13.20
2019-01-12T07:27:17.669Z,11.90
2019-01-12T07:28:17.629Z,12.70
2019-01-12T07:29:17.639Z,12.50
2019-01-12T07:30:17.599Z,13.20
2019-01-12T07:31:17.589Z,13.00
2019-01-12T07:32:17.584Z,13.30
2019-01-12T07:33:17.575Z,13.60
2019-01-12T07:34:17.563Z,14.90
2019-01-12T07:35:17.567Z,12.00
2019-01-12T07:36:17.554Z,13.80
2019-01-12T07:37:17.528Z,14.50
2019-01-12T07:38:17.547Z,13.90
2019-01-12T07:39:17.504Z,13.30
2019-01-12T07:40:17.494Z,14.10
2019-01-12T07:41:17.584Z,14.70
2019-01-12T07:42:17.471Z,13.80
2019-01-12T07:43:17.466Z,14.00
2019-01-12T07:44:17.453Z,14.40
2019-01-12T07:45:17.443Z,14.50
2019-01-12T07:46:17.461Z,14.70
2019-01-12T07:47:17.420Z,18.00
2019-01-12T07:48:17.404Z,15.30
2019-01-12T07:49:17.394Z,16.10
2019-01-12T07:50:17.389Z,16.50
2019-01-12T07:51:17.397Z,17.30
2019-01-12T07:52:17.404Z,16.50
2019-01-12T07:53:17.355Z,16.80
2019-01-12T07:54:17.373Z,19.30
2019-01-12T07:55:17.329Z,18.10
2019-01-12T07:56:17.344Z,18.90
2019-01-12T07:57:17.318Z,19.00
2019-01-12T07:58:17.306Z,21.10
2019-01-12T07:59:17.287Z,18.10
2019-01-12T08:00:17.281Z,22.60
2019-01-12T08:01:17.290Z,20.70
2019-01-12T08:02:17.270Z,19.80
2019-01-12T08:03:17.247Z,20.30
2019-01-12T08:04:17.236Z,22.50
2019-01-12T08:05:17.227Z,21.60
2019-01-12T08:06:17.240Z,21.70
2019-01-12T08:07:17.199Z,21.40
2019-01-12T08:08:17.201Z,19.40
2019-01-12T08:09:17.186Z,23.20
2019-01-12T08:10:17.184Z,24.90
2019-01-12T08:11:17.182Z,23.50
2019-01-12T08:12:17.174Z,21.80
2019-01-12T08:13:17.138Z,25.00
2019-01-12T08:14:17.164Z,27.40
2019-01-12T08:15:17.120Z,23.60
2019-01-12T08:16:17.104Z,26.10
2019-01-12T08:17:17.117Z,24.30
2019-01-12T08:18:17.086Z,26.10
2019-01-12T08:19:17.091Z,25.50
2019-01-12T08:20:17.069Z,24.20
2019-01-12T08:21:17.097Z,25.40
2019-01-12T08:22:17.047Z,25.20
2019-01-12T08:23:17.059Z,26.90
2019-01-12T08:24:17.023Z,27.80
2019-01-12T08:25:17.013Z,28.40
2019-01-12T08:26:17.016Z,26.30
2019-01-12T08:27:16.993Z,27.50
2019-01-12T08:28:16.998Z,27.90
2019-01-12T08:29:16.967Z,27.90
2019-01-12T08:30:16.971Z,24.80
2019-01-12T08:31:16.963Z,25.00
2019-01-12T08:32:16.936Z,26.20
2019-01-12T08:33:16.945Z,25.60
2019-01-12T08:34:16.924Z,25.50
2019-01-12T08:35:16.912Z,26.00
2019-01-12T08:36:16.892Z,27.90
2019-01-12T08:37:16.889Z,28.30
2019-01-12T08:38:16.894Z,27.10
2019-01-12T08:39:16.867Z,25.20
2019-01-12T08:40:16.850Z,25.80
2019-01-12T08:41:16.838Z,26.00
2019-01-12T08:42:16.829Z,24.50
2019-01-12T08:43:16.881Z,23.80
2019-01-12T08:44:16.804Z,25.90
2019-01-12T08:45:16.801Z,27.20
2019-01-12T08:46:16.789Z,22.10
2019-01-12T08:47:16.782Z,26.70
2019-01-12T08:48:16.771Z,22.50
2019-01-12T08:49:16.779Z,29.60
2019-01-12T08:50:16.750Z,25.80
2019-01-12T08:51:16.736Z,22.50
2019-01-12T08:52:16.721Z,24.70
2019-01-12T08:53:16.733Z,24.70
2019-01-12T08:54:16.704Z,24.70
2019-01-12T08:55:16.689Z,23.00
2019-01-12T08:56:16.682Z,22.00
2019-01-12T08:57:16.668Z,26.90
2019-01-12T08:58:16.681Z,24.80
2019-01-12T08:59:16.646Z,26.10
2019-01-12T09:00:16.633Z,21.60
2019-01-12T09:01:16.631Z,24.20
2019-01-12T09:02:16.627Z,27.70
2019-01-12T09:03:16.629Z,25.10
2019-01-12T09:04:16.595Z,24.30
2019-01-12T09:05:16.591Z,23.80
2019-01-12T09:06:16.571Z,21.40
2019-01-12T09:07:16.560Z,20.70
2019-01-12T09:08:16.546Z,27.90
2019-01-12T09:09:16.553Z,25.40
2019-01-12T09:10:16.527Z,26.10
2019-01-12T09:11:16.521Z,24.70
2019-01-12T09:12:16.520Z,24.90
2019-01-12T09:13:16.492Z,25.90
2019-01-12T09:14:16.513Z,23.80
2019-01-12T09:15:16.473Z,28.20
2019-01-12T09:16:16.463Z,27.40
2019-01-12T09:17:16.447Z,25.40
2019-01-12T09:18:16.451Z,22.90
2019-01-12T09:19:16.472Z,26.80
2019-01-12T09:20:16.436Z,25.70
2019-01-12T09:21:16.407Z,25.10
2019-01-12T09:22:16.444Z,30.10
2019-01-12T09:23:16.433Z,24.60
2019-01-12T09:24:16.399Z,25.60
2019-01-12T09:25:16.390Z,25.60
2019-01-12T09:26:16.363Z,27.50
2019-01-12T09:27:16.344Z,25.30
2019-01-12T09:28:16.338Z,27.60
2019-01-12T09:29:16.354Z,25.20
2019-01-12T09:30:16.340Z,24.20
2019-01-12T09:31:16.370Z,27.10
2019-01-12T09:32:16.311Z,26.10
2019-01-12T09:33:16.279Z,25.80
2019-01-12T09:34:16.282Z,25.70
2019-01-12T09:35:16.256Z,23.00
2019-01-12T09:36:16.270Z,24.90
2019-01-12T09:37:16.249Z,24.00
2019-01-12T09:38:16.227Z,24.10
2019-01-12T09:39:16.223Z,20.60
2019-01-12T09:40:16.213Z,23.10
2019-01-12T09:41:16.213Z,22.50
2019-01-12T09:42:16.196Z,22.20
2019-01-12T09:43:16.207Z,21.10
2019-01-12T09:44:16.178Z,20.30
2019-01-12T09:45:16.173Z,22.50
2019-01-12T09:46:16.300Z,23.40
2019-01-12T09:47:16.127Z,24.80
2019-01-12T09:48:16.116Z,24.10
2019-01-12T09:49:16.106Z,22.30
2019-01-12T09:50:16.106Z,24.50
2019-01-12T09:51:16.129Z,23.70
2019-01-12T09:52:16.108Z,20.10
2019-01-12T09:53:16.064Z,22.30
2019-01-12T09:54:16.064Z,19.90
2019-01-12T09:55:16.045Z,20.50
2019-01-12T09:56:16.033Z,20.20
2019-01-12T09:57:16.047Z,19.90
2019-01-12T09:58:16.087Z,24.40
2019-01-12T09:59:15.997Z,20.50
2019-01-12T10:00:15.994Z,21.50
2019-01-12T10:01:15.978Z,20.70
2019-01-12T10:02:16.010Z,21.60
2019-01-12T10:03:15.954Z,21.20
2019-01-12T10:04:15.948Z,22.20
2019-01-12T10:05:15.943Z,20.40
2019-01-12T10:06:15.946Z,21.00
2019-01-12T10:07:15.939Z,22.90
2019-01-12T10:08:15.902Z,21.80
2019-01-12T10:09:15.902Z,21.80
2019-01-12T10:10:15.885Z,22.80
2019-01-12T10:11:15.920Z,23.30
2019-01-12T10:12:15.862Z,22.70
2019-01-12T10:13:15.888Z,26.00
2019-01-12T10:14:15.855Z,21.70
2019-01-12T10:15:15.830Z,22.00
2019-01-12T10:16:15.811Z,21.50
2019-01-12T10:17:15.807Z,20.10
2019-01-12T10:18:15.887Z,22.40
2019-01-12T10:19:15.781Z,22.20
2019-01-12T10:20:15.772Z,23.70
2019-01-12T10:21:15.767Z,21.20
2019-01-12T10:22:15.749Z,23.20
2019-01-12T10:23:15.762Z,21.00
2019-01-12T10:24:15.730Z,25.20
2019-01-12T10:25:15.726Z,21.90
2019-01-12T10:26:15.708Z,22.50
2019-01-12T10:27:15.699Z,25.00
2019-01-12T10:28:15.683Z,24.10
2019-01-12T10:29:15.699Z,23.30
2019-01-12T10:30:15.663Z,25.70
2019-01-12T10:31:15.663Z,25.80
2019-01-12T10:32:15.650Z,20.90
2019-01-12T10:33:15.630Z,22.10
2019-01-12T10:34:15.826Z,24.20
2019-01-12T10:35:15.610Z,21.90
2019-01-12T10:36:15.618Z,22.30
2019-01-12T10:37:15.629Z,23.00
2019-01-12T10:38:15.584Z,22.20
2019-01-12T10:39:18.018Z,20.90
2019-01-12T10:40:15.589Z,23.30
2019-01-12T10:41:15.614Z,21.40
2019-01-12T10:42:15.542Z,22.00
2019-01-12T10:43:15.530Z,22.80
2019-01-12T10:44:15.554Z,22.90
2019-01-12T10:45:15.540Z,21.90
2019-01-12T10:46:15.494Z,20.70
2019-01-12T10:47:15.480Z,22.30
2019-01-12T10:48:15.518Z,24.10
2019-01-12T10:49:15.465Z,23.00
2019-01-12T10:50:15.474Z,22.80
2019-01-12T10:51:15.452Z,21.30
2019-01-12T10:52:15.428Z,23.80
2019-01-12T10:53:15.416Z,22.50
2019-01-12T10:54:15.407Z,22.10
2019-01-12T10:55:15.436Z,21.70
2019-01-12T10:56:15.389Z,25.80
2019-01-12T10:57:15.378Z,22.80
2019-01-12T10:58:15.370Z,22.60
2019-01-12T10:59:15.353Z,22.10
2019-01-12T11:00:15.340Z,20.10
2019-01-12T11:01:15.425Z,23.80
2019-01-12T11:02:15.358Z,21.80
2019-01-12T11:03:15.308Z,21.80
2019-01-12T11:04:15.302Z,20.00
2019-01-12T11:05:15.293Z,20.80
2019-01-12T11:06:15.330Z,21.80
2019-01-12T11:07:15.265Z,18.90
2019-01-12T11:08:15.260Z,19.20
2019-01-12T11:09:15.263Z,21.40
2019-01-12T11:10:15.263Z,22.90
2019-01-12T11:11:15.253Z,22.00
2019-01-12T11:12:15.228Z,22.20
2019-01-12T11:13:15.221Z,20.30
2019-01-12T11:14:15.199Z,21.30
2019-01-12T11:15:15.183Z,22.80
2019-01-12T11:16:15.182Z,22.00
2019-01-12T11:17:15.185Z,20.50
2019-01-12T11:18:15.172Z,20.40
2019-01-12T11:19:15.146Z,20.20
2019-01-12T11:20:15.171Z,21.70
2019-01-12T11:21:15.157Z,19.70
2019-01-12T11:22:15.100Z,19.40
2019-01-12T11:23:15.093Z,24.00
2019-01-12T11:24:15.105Z,22.50
2019-01-12T11:25:15.068Z,22.20
2019-01-12T11:26:15.093Z,20.00
2019-01-12T11:27:15.065Z,22.10
2019-01-12T11:28:15.041Z,22.70
2019-01-12T11:29:15.030Z,21.00
2019-01-12T11:30:15.014Z,23.70
2019-01-12T11:31:19.801Z,20.70
2019-01-12T11:32:16.025Z,21.30
2019-01-12T11:33:14.986Z,19.80
2019-01-12T11:34:14.978Z,21.80
2019-01-12T11:35:14.985Z,22.60
2019-01-12T11:36:14.955Z,23.20
2019-01-12T11:37:14.976Z,22.30
2019-01-12T11:38:14.934Z,25.40
2019-01-12T11:39:14.932Z,21.10
2019-01-12T11:40:14.935Z,19.30
2019-01-12T11:41:14.901Z,25.00
2019-01-12T11:42:14.895Z,22.20
2019-01-12T11:43:14.897Z,19.70
2019-01-12T11:44:14.865Z,20.30
2019-01-12T11:45:14.854Z,18.60
2019-01-12T11:46:14.854Z,20.70
2019-01-12T11:47:14.831Z,20.10
2019-01-12T11:48:14.897Z,21.40
2019-01-12T11:49:14.814Z,19.30
2019-01-12T11:50:14.815Z,22.60
2019-01-12T11:51:14.808Z,20.40
2019-01-12T11:52:14.782Z,20.40
2019-01-12T11:53:14.786Z,21.00
2019-01-12T11:54:14.791Z,19.40
2019-01-12T11:55:14.746Z,21.00
2019-01-12T11:56:14.739Z,21.00
2019-01-12T11:57:19.063Z,17.40
2019-01-12T11:58:14.739Z,18.40
2019-01-12T11:59:14.704Z,19.50
2019-01-12T12:00:14.695Z,18.50
2019-01-12T12:01:14.679Z,19.20
2019-01-12T12:02:14.675Z,18.20
2019-01-12T12:03:14.696Z,17.80
2019-01-12T12:04:14.666Z,19.00
2019-01-12T12:05:14.637Z,17.90
2019-01-12T12:06:14.626Z,19.70
2019-01-12T12:07:14.619Z,20.10
2019-01-12T12:08:14.642Z,15.40
2019-01-12T12:09:14.610Z,20.10
2019-01-12T12:10:14.621Z,20.00
2019-01-12T12:11:14.576Z,15.70
2019-01-12T12:12:14.611Z,22.50
2019-01-12T12:13:14.597Z,16.90
2019-01-12T12:14:14.542Z,18.10
2019-01-12T12:15:14.535Z,17.10
2019-01-12T12:16:14.534Z,20.10
2019-01-12T12:17:14.507Z,18.50
2019-01-12T12:18:14.547Z,17.70
2019-01-12T12:19:14.484Z,19.80
2019-01-12T12:20:14.482Z,19.00
2019-01-12T12:21:14.464Z,19.70
2019-01-12T12:22:14.454Z,20.10
2019-01-12T12:23:14.440Z,24.40
2019-01-12T12:24:14.448Z,18.10
2019-01-12T12:25:14.419Z,20.00
2019-01-12T12:26:14.408Z,17.10
2019-01-12T12:27:14.405Z,21.40
2019-01-12T12:28:14.455Z,22.00
2019-01-12T12:29:14.392Z,17.90
2019-01-12T12:30:14.365Z,20.40
2019-01-12T12:31:14.358Z,20.50
2019-01-12T12:32:14.345Z,20.10
2019-01-12T12:33:14.332Z,19.70
2019-01-12T12:34:14.351Z,18.80
2019-01-12T12:35:14.315Z,21.20
2019-01-12T12:36:14.307Z,21.20
2019-01-12T12:37:14.310Z,19.60
2019-01-12T12:38:14.288Z,19.10
2019-01-12T12:39:14.267Z,22.00
2019-01-12T12:40:14.282Z,21.90
2019-01-12T12:41:14.247Z,23.50
2019-01-12T12:42:14.237Z,22.20
2019-01-12T12:43:14.233Z,22.60
2019-01-12T12:44:14.215Z,23.90
2019-01-12T12:45:14.247Z,22.10
2019-01-12T12:46:14.192Z,22.70
2019-01-12T12:47:14.183Z,20.70
2019-01-12T12:48:14.173Z,24.80
2019-01-12T12:49:14.175Z,23.90
2019-01-12T12:50:14.156Z,24.40
2019-01-12T12:51:14.163Z,22.30
2019-01-12T12:52:14.130Z,23.20
2019-01-12T12:53:14.120Z,22.30
2019-01-12T12:54:14.108Z,27.00